Round Top, Texas
Current Conditions -  °F | °C
As of 1:50 AM on Wednesday 26 Nov 2014 (Local Time) from K3T5 Reporting Station
Clear Clear  
Wind Chill: 45°   Ceiling: Unl
Heat Index: 47°   Visibility: 10mi
Dew Point: 37°   Wind: 5mph
Humidity: 67%   Direction: 210°SSW
Pressure: 30.18"   Gusts: NA
Location:  30.06°N, 96.7°W
Report Text: K3T5 260750Z AUTO 21004KT 10SM CLR 08/03 A3018 RMK AO2 T00820025
Loading
Personal Weather Stations






























Interactive Weather Map New forecast layout! Learn more

10-Day Weather Forecast

Advertisements
Track Severe Weather on mobile